Time;durP1;ratioP1;P1;durP2;ratioP2;P2;SDS_P1;SDS_P2;PMS_P1;PMS_P2;Temp;Humidity;BMP_temperature;BMP_pressure;BME280_temperature;BME280_humidity;BME280_pressure;Samples;Min_cycle;Max_cycle;Signal;HPM_P1;HPM_P2
2022/07/11 00:01:46;;;;;;;8.52;3.15;;;19.90;80.70;;;;;;5022331;28;20018;-73
2022/07/11 00:04:12;;;;;;;11.07;3.50;;;19.90;80.90;;;;;;5017041;28;20493;-73
2022/07/11 00:06:37;;;;;;;7.32;2.45;;;19.90;80.90;;;;;;5021110;28;20029;-73
2022/07/11 00:09:03;;;;;;;7.55;2.92;;;19.90;80.90;;;;;;5018502;28;20025;-74
2022/07/11 00:11:29;;;;;;;9.05;3.10;;;19.90;80.90;;;;;;5020304;28;20029;-73
2022/07/11 00:13:54;;;;;;;5.75;2.17;;;19.90;81.00;;;;;;5017930;28;20075;-73
2022/07/11 00:16:20;;;;;;;8.18;2.70;;;19.90;81.00;;;;;;5018834;28;20727;-74
2022/07/11 00:18:45;;;;;;;6.85;2.05;;;19.90;81.00;;;;;;5020492;28;20052;-73
2022/07/11 00:21:11;;;;;;;8.70;2.38;;;19.90;80.80;;;;;;5015767;28;20044;-74
2022/07/11 00:23:37;;;;;;;7.25;2.60;;;19.90;81.10;;;;;;5020072;28;20021;-73
2022/07/11 00:26:04;;;;;;;8.25;3.25;;;19.90;81.20;;;;;;5020027;28;20026;-74
2022/07/11 00:28:29;;;;;;;7.20;2.65;;;19.90;81.30;;;;;;5022684;28;20037;-74
2022/07/11 00:30:56;;;;;;;7.03;2.33;;;19.90;81.40;;;;;;5019584;28;20495;-73
2022/07/11 00:33:21;;;;;;;6.43;2.28;;;19.90;81.40;;;;;;5027679;28;20107;-74
2022/07/11 00:35:47;;;;;;;10.88;2.88;;;19.80;81.30;;;;;;5025326;28;20033;-73
2022/07/11 00:38:13;;;;;;;8.82;2.15;;;19.80;81.40;;;;;;5026672;28;20060;-73
2022/07/11 00:40:39;;;;;;;11.95;2.55;;;19.90;81.30;;;;;;5025384;28;20010;-73
2022/07/11 00:43:05;;;;;;;6.55;2.22;;;19.90;81.30;;;;;;5027697;28;20043;-73
2022/07/11 00:45:30;;;;;;;7.32;2.60;;;19.80;81.10;;;;;;5026041;28;20018;-73
2022/07/11 00:47:56;;;;;;;8.68;3.03;;;19.80;81.30;;;;;;5027424;28;20061;-75
2022/07/11 00:50:23;;;;;;;4.28;1.80;;;19.80;81.30;;;;;;5010136;28;20040;-74
2022/07/11 00:52:51;;;;;;;5.43;1.75;;;19.80;81.50;;;;;;5025785;28;20037;-74
2022/07/11 00:55:17;;;;;;;9.40;1.90;;;19.80;81.40;;;;;;5027576;28;20138;-73
2022/07/11 00:57:43;;;;;;;7.28;1.83;;;19.80;81.40;;;;;;5021418;28;20402;-74
2022/07/11 01:00:09;;;;;;;7.00;1.70;;;19.80;81.30;;;;;;5029385;28;20029;-74
2022/07/11 01:02:35;;;;;;;7.85;2.03;;;19.80;81.30;;;;;;5022539;28;20526;-74
2022/07/11 01:05:01;;;;;;;4.43;1.00;;;19.80;81.30;;;;;;5029664;28;20030;-75
2022/07/11 01:07:26;;;;;;;4.97;1.60;;;19.80;80.70;;;;;;5027418;28;20053;-73
2022/07/11 01:09:52;;;;;;;7.50;1.73;;;19.80;80.70;;;;;;5011603;28;20477;-74
2022/07/11 01:12:18;;;;;;;7.78;2.28;;;19.80;81.00;;;;;;5021422;28;20026;-74
2022/07/11 01:14:59;;;;;;;5.15;1.45;;;19.80;81.10;;;;;;5004775;28;20551;-74
2022/07/11 01:17:25;;;;;;;4.63;1.75;;;19.80;81.00;;;;;;5023885;28;20036;-73
2022/07/11 01:19:50;;;;;;;3.85;1.40;;;19.80;81.00;;;;;;5014433;28;20030;-73
2022/07/11 01:22:20;;;;;;;5.30;1.50;;;19.80;81.10;;;;;;5015791;28;20071;-73
2022/07/11 01:24:46;;;;;;;3.90;1.50;;;19.80;81.20;;;;;;5015912;28;20103;-74
2022/07/11 01:27:12;;;;;;;5.70;1.30;;;19.80;81.20;;;;;;5012942;28;20531;-74
2022/07/11 01:29:39;;;;;;;3.05;1.63;;;19.80;81.00;;;;;;5031218;28;20021;-74
2022/07/11 01:32:06;;;;;;;6.28;1.60;;;19.80;81.00;;;;;;5023800;28;20430;-74
2022/07/11 01:34:32;;;;;;;6.93;2.13;;;19.80;81.00;;;;;;5020847;28;20049;-74
2022/07/11 01:36:57;;;;;;;6.18;1.50;;;19.80;81.00;;;;;;5016789;28;20512;-74
2022/07/11 01:39:23;;;;;;;3.17;1.00;;;19.80;80.90;;;;;;5017283;28;20018;-74
2022/07/11 01:41:51;;;;;;;4.75;1.63;;;19.80;80.80;;;;;;5027596;28;20052;-74
2022/07/11 01:44:17;;;;;;;2.38;1.27;;;19.80;80.70;;;;;;5017212;28;20021;-73
2022/07/11 01:46:42;;;;;;;4.72;1.20;;;19.80;80.40;;;;;;5011414;28;20017;-74
2022/07/11 01:49:09;;;;;;;8.77;1.98;;;19.80;81.70;;;;;;5028588;28;20018;-74
2022/07/11 01:51:35;;;;;;;6.07;1.92;;;19.70;81.10;;;;;;5012480;28;20101;-74
2022/07/11 01:54:00;;;;;;;3.60;1.35;;;19.70;81.10;;;;;;5029207;28;20088;-74
2022/07/11 01:56:29;;;;;;;3.40;1.10;;;19.70;81.30;;;;;;5032553;28;20083;-74
2022/07/11 01:58:54;;;;;;;2.55;1.40;;;19.60;81.30;;;;;;5029239;28;20112;-74
2022/07/11 02:01:20;;;;;;;3.05;1.30;;;19.70;81.40;;;;;;5028428;28;20834;-75
2022/07/11 02:03:46;;;;;;;7.20;1.35;;;19.70;81.50;;;;;;5027898;28;20040;-74
2022/07/11 02:06:11;;;;;;;4.57;1.50;;;19.70;81.30;;;;;;5021220;28;20480;-74
2022/07/11 02:08:37;;;;;;;4.28;1.20;;;19.70;81.20;;;;;;5027691;28;20411;-74
2022/07/11 02:11:03;;;;;;;3.75;0.95;;;19.70;81.00;;;;;;5024922;28;20049;-74
2022/07/11 02:13:28;;;;;;;4.68;1.48;;;19.70;79.50;;;;;;5028117;28;20054;-73
2022/07/11 02:15:54;;;;;;;5.97;1.10;;;19.60;79.80;;;;;;5006350;28;20032;-73
2022/07/11 02:18:20;;;;;;;3.45;1.48;;;19.60;80.70;;;;;;5029889;28;20038;-74
2022/07/11 02:20:48;;;;;;;4.68;1.17;;;19.60;80.60;;;;;;5031604;28;20020;-74
2022/07/11 02:23:15;;;;;;;3.97;1.55;;;19.60;80.80;;;;;;5031587;28;20025;-72
2022/07/11 02:25:41;;;;;;;4.85;1.17;;;19.60;81.20;;;;;;5009581;28;20022;-73
2022/07/11 02:28:08;;;;;;;3.25;1.08;;;19.60;81.30;;;;;;5012196;28;20488;-74
2022/07/11 02:30:35;;;;;;;5.65;1.63;;;19.60;81.50;;;;;;5027406;28;20029;-73
2022/07/11 02:33:01;;;;;;;4.18;1.30;;;19.60;81.50;;;;;;5028928;28;20449;-73
2022/07/11 02:35:26;;;;;;;5.28;1.23;;;19.60;80.80;;;;;;5027162;28;20509;-73
2022/07/11 02:37:52;;;;;;;4.45;1.17;;;19.70;80.40;;;;;;5029498;28;20508;-73
2022/07/11 02:40:20;;;;;;;5.05;1.20;;;19.60;80.50;;;;;;5023159;28;20396;-73
2022/07/11 02:42:45;;;;;;;4.30;1.42;;;19.60;80.10;;;;;;5027494;28;20108;-73
2022/07/11 02:45:11;;;;;;;3.13;0.90;;;19.60;80.50;;;;;;5027241;28;20575;-72
2022/07/11 02:47:39;;;;;;;5.18;1.20;;;19.60;80.30;;;;;;5030502;28;20022;-75
2022/07/11 02:50:07;;;;;;;5.78;1.58;;;19.60;81.20;;;;;;5027165;28;20083;-75
2022/07/11 02:52:33;;;;;;;5.28;1.23;;;19.60;80.50;;;;;;5025212;28;20053;-75
2022/07/11 02:54:58;;;;;;;10.85;1.52;;;19.60;80.10;;;;;;5026883;28;20096;-72
2022/07/11 02:57:24;;;;;;;7.80;1.50;;;19.60;81.80;;;;;;5030736;28;20069;-74
2022/07/11 02:59:50;;;;;;;2.28;1.00;;;19.60;81.80;;;;;;5029825;28;20111;-73
2022/07/11 03:02:15;;;;;;;8.65;2.10;;;19.50;81.80;;;;;;5030636;28;20025;-74
2022/07/11 03:04:41;;;;;;;5.60;1.35;;;19.40;82.00;;;;;;5030572;28;20030;-74
2022/07/11 03:07:07;;;;;;;5.93;1.58;;;19.40;82.60;;;;;;5028110;28;20029;-75
2022/07/11 03:09:33;;;;;;;6.70;1.60;;;19.40;83.30;;;;;;5031264;28;20387;-74
2022/07/11 03:11:58;;;;;;;8.20;1.70;;;19.40;81.80;;;;;;5007827;28;20025;-73
2022/07/11 03:14:24;;;;;;;6.63;1.65;;;19.40;82.30;;;;;;5026235;28;20442;-73
2022/07/11 03:16:49;;;;;;;1.63;0.82;;;19.40;82.40;;;;;;5024810;28;20033;-74
2022/07/11 03:19:15;;;;;;;4.07;1.55;;;19.40;81.70;;;;;;5012473;28;20057;-74
2022/07/11 03:21:41;;;;;;;3.17;1.05;;;19.30;82.40;;;;;;5020878;28;20025;-74
2022/07/11 03:24:06;;;;;;;2.63;1.20;;;19.30;82.80;;;;;;5030845;28;20056;-73
2022/07/11 03:26:32;;;;;;;5.93;1.65;;;19.30;82.40;;;;;;5026444;28;20079;-74
2022/07/11 03:28:57;;;;;;;5.15;1.60;;;19.30;81.70;;;;;;4999913;28;20056;-74
2022/07/11 03:31:23;;;;;;;4.47;1.70;;;19.30;81.90;;;;;;5019462;28;20024;-73
2022/07/11 03:33:51;;;;;;;4.40;1.10;;;19.20;82.80;;;;;;5025130;28;20025;-75
2022/07/11 03:36:17;;;;;;;3.85;1.40;;;19.30;83.60;;;;;;5026789;28;20022;-73
2022/07/11 03:38:42;;;;;;;4.13;1.30;;;19.20;83.50;;;;;;5020888;28;20092;-73
2022/07/11 03:41:08;;;;;;;5.82;1.92;;;19.10;83.30;;;;;;5029336;28;20017;-73
2022/07/11 03:43:33;;;;;;;7.30;2.10;;;19.10;84.50;;;;;;5026946;28;20109;-73
2022/07/11 03:45:59;;;;;;;5.68;1.67;;;19.10;84.80;;;;;;5030067;28;20035;-73
2022/07/11 03:48:24;;;;;;;4.22;1.83;;;19.20;84.90;;;;;;5014832;28;20029;-73
2022/07/11 03:50:50;;;;;;;3.88;1.60;;;19.20;84.40;;;;;;5029140;28;20017;-73
2022/07/11 03:53:16;;;;;;;4.22;1.58;;;19.10;84.70;;;;;;5025290;28;20047;-73
2022/07/11 03:55:42;;;;;;;5.28;1.90;;;19.10;84.90;;;;;;5011629;28;20026;-73
2022/07/11 03:58:08;;;;;;;4.38;1.70;;;19.10;85.20;;;;;;5025914;28;20064;-73
2022/07/11 04:00:33;;;;;;;8.57;1.98;;;19.10;85.80;;;;;;4995780;28;20109;-73
2022/07/11 04:03:00;;;;;;;5.72;1.65;;;19.20;85.90;;;;;;5026339;28;20036;-72
2022/07/11 04:05:26;;;;;;;5.05;1.60;;;19.20;85.90;;;;;;5029917;28;20021;-73
2022/07/11 04:07:52;;;;;;;6.03;1.83;;;19.20;85.90;;;;;;5027554;28;20037;-73
2022/07/11 04:10:18;;;;;;;7.90;2.00;;;19.20;85.60;;;;;;5029771;28;20029;-74
2022/07/11 04:12:44;;;;;;;5.80;1.75;;;19.20;85.70;;;;;;5026528;28;20018;-75
2022/07/11 04:15:10;;;;;;;5.88;1.65;;;19.30;85.70;;;;;;5030482;28;20029;-73
2022/07/11 04:17:37;;;;;;;8.35;2.15;;;19.30;85.60;;;;;;5016131;28;20076;-74
2022/07/11 04:20:03;;;;;;;3.90;1.70;;;19.30;85.70;;;;;;5025209;28;20469;-74
2022/07/11 04:22:29;;;;;;;2.90;1.33;;;19.30;86.00;;;;;;5025200;28;20030;-75
2022/07/11 04:24:55;;;;;;;8.25;2.17;;;19.30;86.40;;;;;;5003144;28;20673;-74
2022/07/11 04:27:21;;;;;;;2.13;1.45;;;19.30;86.60;;;;;;5025750;28;20080;-74
2022/07/11 04:29:46;;;;;;;5.03;2.22;;;19.40;86.60;;;;;;5025954;28;20479;-74
2022/07/11 04:32:12;;;;;;;5.65;1.80;;;19.40;86.60;;;;;;5021684;28;20030;-74
2022/07/11 04:34:38;;;;;;;3.92;2.22;;;19.30;87.00;;;;;;5024502;28;20028;-74
2022/07/11 04:37:04;;;;;;;6.93;2.78;;;19.30;87.20;;;;;;5016316;28;20056;-73
2022/07/11 04:39:32;;;;;;;5.40;2.38;;;19.30;87.40;;;;;;5001114;28;20022;-73
2022/07/11 04:41:58;;;;;;;8.85;2.30;;;19.30;87.60;;;;;;5027572;28;20025;-74
2022/07/11 04:44:23;;;;;;;2.55;1.42;;;19.30;88.30;;;;;;5024188;28;20468;-74
2022/07/11 04:46:49;;;;;;;4.60;1.65;;;19.30;87.40;;;;;;5025442;28;20080;-73
2022/07/11 04:49:15;;;;;;;3.25;2.00;;;19.20;87.30;;;;;;5024500;28;20506;-74
2022/07/11 04:51:40;;;;;;;5.97;2.30;;;19.20;87.60;;;;;;5026939;28;20225;-73
2022/07/11 04:54:07;;;;;;;5.10;1.98;;;19.20;87.80;;;;;;5024180;28;20460;-72
2022/07/11 04:56:33;;;;;;;4.25;1.70;;;19.20;88.00;;;;;;5028166;28;20428;-73
2022/07/11 04:58:58;;;;;;;3.53;1.65;;;19.10;88.30;;;;;;5025968;28;20044;-72
2022/07/11 05:01:24;;;;;;;3.25;1.60;;;19.10;88.50;;;;;;5026761;28;20103;-73
2022/07/11 05:03:51;;;;;;;3.47;1.65;;;19.10;88.60;;;;;;5027812;28;20053;-72
2022/07/11 05:06:17;;;;;;;4.90;1.48;;;19.10;88.60;;;;;;5018970;28;20108;-72
2022/07/11 05:08:43;;;;;;;5.90;1.60;;;19.10;88.70;;;;;;5028026;28;20468;-72
2022/07/11 05:11:09;;;;;;;3.40;1.73;;;19.10;88.50;;;;;;5023087;28;20022;-72
2022/07/11 05:13:35;;;;;;;5.53;2.22;;;19.10;88.80;;;;;;5029127;28;20525;-73
2022/07/11 05:16:02;;;;;;;3.63;1.90;;;19.10;89.10;;;;;;5026555;28;20072;-73
2022/07/11 05:18:28;;;;;;;3.15;1.60;;;19.10;89.00;;;;;;5028490;28;20033;-73
2022/07/11 05:20:53;;;;;;;5.45;2.20;;;19.20;89.00;;;;;;5024297;28;20026;-73
2022/07/11 05:23:19;;;;;;;3.90;2.00;;;19.20;89.00;;;;;;5029143;28;20395;-72
2022/07/11 05:25:44;;;;;;;4.18;1.65;;;19.30;89.30;;;;;;5024277;28;20481;-73
2022/07/11 05:28:10;;;;;;;3.35;1.90;;;19.30;89.50;;;;;;5027279;28;20025;-73
2022/07/11 05:30:36;;;;;;;3.55;1.33;;;19.30;88.60;;;;;;5026501;28;20049;-73
2022/07/11 05:33:01;;;;;;;3.58;1.10;;;19.30;88.30;;;;;;5007375;28;20022;-73
2022/07/11 05:35:27;;;;;;;3.30;0.88;;;19.40;88.30;;;;;;5027346;28;20098;-73
2022/07/11 05:37:52;;;;;;;2.63;1.00;;;19.60;87.80;;;;;;5032749;28;20376;-73
2022/07/11 05:40:18;;;;;;;1.90;0.93;;;19.90;86.60;;;;;;5021095;28;20036;-73
2022/07/11 05:42:44;;;;;;;1.33;0.70;;;20.00;86.20;;;;;;5022251;28;20101;-72
2022/07/11 05:45:10;;;;;;;1.15;0.50;;;20.10;85.70;;;;;;5028228;28;20068;-73
2022/07/11 05:47:35;;;;;;;1.40;0.70;;;20.30;85.10;;;;;;5027469;28;20582;-73
2022/07/11 05:50:01;;;;;;;1.35;0.63;;;20.30;84.70;;;;;;5012214;28;20109;-72
2022/07/11 05:52:27;;;;;;;1.55;0.90;;;20.40;84.50;;;;;;5022741;28;20498;-73
2022/07/11 05:54:52;;;;;;;2.92;0.80;;;20.50;84.40;;;;;;4993627;28;20022;-72
2022/07/11 05:57:18;;;;;;;3.88;0.80;;;20.60;84.10;;;;;;5014888;28;20419;-72
2022/07/11 05:59:45;;;;;;;3.15;1.10;;;20.70;83.70;;;;;;5029737;28;20120;-72
2022/07/11 06:02:11;;;;;;;1.30;0.80;;;20.80;83.40;;;;;;5026041;28;20384;-72
2022/07/11 06:04:37;;;;;;;1.52;0.60;;;20.90;82.90;;;;;;5028955;28;20049;-73
2022/07/11 06:07:03;;;;;;;2.58;0.65;;;21.00;82.50;;;;;;5008944;28;20061;-73
2022/07/11 06:09:29;;;;;;;0.95;0.50;;;21.10;82.20;;;;;;5017865;28;20022;-73
2022/07/11 06:11:55;;;;;;;1.38;0.60;;;21.10;81.90;;;;;;5016986;28;20032;-73
2022/07/11 06:14:22;;;;;;;1.45;0.65;;;21.20;81.80;;;;;;5021830;28;20118;-72
2022/07/11 06:16:48;;;;;;;0.85;0.40;;;21.20;81.70;;;;;;5028599;28;20048;-72
2022/07/11 06:19:14;;;;;;;0.95;0.70;;;21.20;81.30;;;;;;5021594;28;20083;-72
2022/07/11 06:21:40;;;;;;;1.30;0.60;;;21.20;81.80;;;;;;5029801;28;20025;-74
2022/07/11 06:24:06;;;;;;;0.85;0.55;;;21.20;81.20;;;;;;5019501;28;20032;-71
2022/07/11 06:26:31;;;;;;;0.90;0.50;;;21.30;81.00;;;;;;5025850;28;20452;-73
2022/07/11 06:28:57;;;;;;;1.75;0.60;;;21.40;80.70;;;;;;5021955;28;20024;-73
2022/07/11 06:31:23;;;;;;;1.27;0.50;;;21.40;80.30;;;;;;5020977;28;20097;-73
2022/07/11 06:33:54;;;;;;;0.70;0.50;;;21.50;80.20;;;;;;5002401;28;20025;-73
2022/07/11 06:36:23;;;;;;;0.63;0.50;;;21.50;80.00;;;;;;5020636;28;20033;-72
2022/07/11 06:38:50;;;;;;;1.33;0.60;;;21.50;79.80;;;;;;5016483;28;20137;-72
2022/07/11 06:41:16;;;;;;;1.80;0.60;;;21.40;79.60;;;;;;5032231;28;20037;-72
2022/07/11 06:43:42;;;;;;;0.85;0.43;;;21.40;79.30;;;;;;5025509;28;20680;-71
2022/07/11 06:46:07;;;;;;;1.05;0.57;;;21.30;79.50;;;;;;5021670;28;20025;-72
2022/07/11 06:48:33;;;;;;;1.02;0.40;;;21.30;79.80;;;;;;5026295;28;20025;-72
2022/07/11 06:50:59;;;;;;;2.42;0.50;;;21.30;73.50;;;;;;5028577;28;20037;-73
2022/07/11 06:53:24;;;;;;;1.20;0.52;;;21.40;75.00;;;;;;5011002;28;20064;-74
2022/07/11 06:55:50;;;;;;;1.10;0.70;;;21.50;77.10;;;;;;5013151;28;20040;-74
2022/07/11 06:58:31;;;;;;;2.65;0.80;;;21.50;78.40;;;;;;5028348;28;20038;-73
2022/07/11 07:01:04;;;;;;;2.72;0.60;;;21.40;78.90;;;;;;5024263;28;20483;-73
2022/07/11 07:03:30;;;;;;;0.63;0.50;;;21.20;79.20;;;;;;5026877;28;20026;-73
2022/07/11 07:05:56;;;;;;;1.40;0.50;;;21.20;79.50;;;;;;5029827;28;21579;-73
2022/07/11 07:08:27;;;;;;;0.77;0.50;;;21.20;79.60;;;;;;5024581;28;20048;-74
2022/07/11 07:10:53;;;;;;;1.33;0.65;;;21.30;79.70;;;;;;5024492;28;20049;-74
2022/07/11 07:13:23;;;;;;;0.30;0.30;;;21.30;79.60;;;;;;5028960;28;20014;-74
2022/07/11 07:15:49;;;;;;;0.80;0.45;;;21.40;79.40;;;;;;5019943;28;20480;-74
2022/07/11 07:18:15;;;;;;;1.00;0.50;;;21.60;79.10;;;;;;5012751;28;20033;-74
2022/07/11 07:20:41;;;;;;;0.93;0.60;;;21.70;78.60;;;;;;5026489;28;20893;-72
2022/07/11 07:23:07;;;;;;;0.80;0.60;;;21.60;78.60;;;;;;5031167;28;20021;-73
2022/07/11 07:25:33;;;;;;;1.50;1.05;;;21.40;79.00;;;;;;5024632;28;20500;-73
2022/07/11 07:27:59;;;;;;;2.08;0.70;;;21.40;80.10;;;;;;5010741;28;20044;-72
2022/07/11 07:30:25;;;;;;;2.45;0.95;;;21.30;80.10;;;;;;5005262;28;20029;-73
2022/07/11 07:32:51;;;;;;;3.42;0.75;;;21.30;80.00;;;;;;5011537;28;20033;-74
2022/07/11 07:35:16;;;;;;;3.20;0.73;;;21.30;81.30;;;;;;5002149;28;20037;-73
2022/07/11 07:37:43;;;;;;;1.80;0.80;;;21.30;80.70;;;;;;5021569;28;20034;-73
2022/07/11 07:40:11;;;;;;;1.33;0.60;;;21.40;80.80;;;;;;5017188;28;20013;-73
2022/07/11 07:42:36;;;;;;;1.27;0.93;;;21.50;79.20;;;;;;5025299;28;20395;-73
2022/07/11 07:45:02;;;;;;;1.08;0.60;;;21.60;80.20;;;;;;5025528;28;20018;-74
2022/07/11 07:47:29;;;;;;;2.10;0.47;;;21.60;79.50;;;;;;5022385;28;20077;-74
2022/07/11 07:49:55;;;;;;;0.90;0.50;;;21.70;79.80;;;;;;5027959;28;20095;-74
2022/07/11 07:52:20;;;;;;;0.38;0.30;;;21.60;79.80;;;;;;5002572;28;20068;-73
2022/07/11 07:54:46;;;;;;;1.27;0.60;;;21.60;79.50;;;;;;5027657;28;20452;-73
2022/07/11 07:57:12;;;;;;;0.85;0.60;;;21.60;80.10;;;;;;5020518;28;20021;-73
2022/07/11 07:59:38;;;;;;;1.98;0.80;;;21.40;79.90;;;;;;5011134;28;20463;-74
2022/07/11 08:02:03;;;;;;;1.27;0.63;;;21.30;80.20;;;;;;5021546;28;20101;-73
2022/07/11 08:04:29;;;;;;;1.15;0.55;;;21.10;81.30;;;;;;5010212;28;20033;-73
2022/07/11 08:06:59;;;;;;;1.90;0.50;;;21.00;81.70;;;;;;5005160;28;20116;-73
2022/07/11 08:09:24;;;;;;;0.88;0.40;;;20.90;82.30;;;;;;5010030;28;20068;-73
2022/07/11 08:11:50;;;;;;;1.05;0.60;;;21.00;82.40;;;;;;5022508;28;20021;-72
2022/07/11 08:14:17;;;;;;;1.95;0.60;;;21.10;82.70;;;;;;4992796;28;20188;-73
2022/07/11 08:16:43;;;;;;;0.80;0.52;;;21.10;82.10;;;;;;5021222;28;20109;-73
2022/07/11 08:19:11;;;;;;;0.95;0.30;;;21.10;81.90;;;;;;5029391;28;20464;-74
2022/07/11 08:21:37;;;;;;;0.73;0.50;;;21.20;80.40;;;;;;5025621;28;20016;-74
2022/07/11 08:24:03;;;;;;;2.47;0.70;;;21.20;79.50;;;;;;5014665;28;20116;-74
2022/07/11 08:26:29;;;;;;;1.42;0.50;;;21.20;77.40;;;;;;5017950;28;20018;-74
2022/07/11 08:28:54;;;;;;;0.80;0.43;;;21.10;77.10;;;;;;5017505;28;20079;-73
2022/07/11 08:31:20;;;;;;;0.57;0.32;;;21.10;79.10;;;;;;5012425;28;20113;-74
2022/07/11 08:33:46;;;;;;;0.73;0.50;;;21.00;80.00;;;;;;5001707;28;20040;-74
2022/07/11 08:36:11;;;;;;;1.45;0.50;;;21.00;79.50;;;;;;5011382;28;20060;-73
2022/07/11 08:38:39;;;;;;;1.35;0.50;;;21.00;80.70;;;;;;5001499;28;20379;-73
2022/07/11 08:41:05;;;;;;;2.13;0.52;;;21.10;79.80;;;;;;5024565;28;20029;-73
2022/07/11 08:43:31;;;;;;;0.65;0.40;;;21.10;75.10;;;;;;5020838;28;20465;-73
2022/07/11 08:45:58;;;;;;;2.75;1.02;;;21.10;77.00;;;;;;5019918;28;20037;-73
2022/07/11 08:48:24;;;;;;;0.90;0.60;;;21.10;79.30;;;;;;5024484;28;20037;-74
2022/07/11 08:50:50;;;;;;;2.90;0.52;;;21.10;79.60;;;;;;5007927;28;20060;-73
2022/07/11 08:53:17;;;;;;;2.22;0.90;;;21.10;80.00;;;;;;5021771;28;20052;-73
2022/07/11 08:55:43;;;;;;;1.67;0.80;;;21.00;80.80;;;;;;4991232;28;20026;-72
2022/07/11 08:58:09;;;;;;;1.35;0.50;;;20.80;81.20;;;;;;5019326;28;20498;-73
2022/07/11 09:00:38;;;;;;;1.30;0.65;;;20.80;81.50;;;;;;4993898;28;20148;-73
2022/07/11 09:03:05;;;;;;;0.67;0.43;;;20.80;83.10;;;;;;5019117;28;20022;-73
2022/07/11 09:05:32;;;;;;;1.98;0.70;;;20.80;80.70;;;;;;5035303;28;20079;-73
2022/07/11 09:07:58;;;;;;;2.45;0.77;;;20.80;81.80;;;;;;5031846;28;20102;-73
2022/07/11 09:10:24;;;;;;;5.80;0.80;;;20.80;81.90;;;;;;5031084;28;20104;-73
2022/07/11 09:13:07;;;;;;;1.50;0.75;;;20.80;81.90;;;;;;5013373;28;20034;-73
2022/07/11 09:15:33;;;;;;;2.17;1.00;;;20.80;82.00;;;;;;5018153;28;20018;-73
2022/07/11 09:17:59;;;;;;;1.13;0.73;;;20.80;82.20;;;;;;4999258;28;20547;-73
2022/07/11 09:20:24;;;;;;;1.20;0.70;;;20.90;81.80;;;;;;5023199;28;20031;-73
2022/07/11 09:25:42;;;;;;;1.20;0.75;;;21.10;81.10;;;;;;5025922;28;20084;-74
2022/07/11 09:28:08;;;;;;;2.40;1.08;;;21.10;80.50;;;;;;5033613;28;20104;-73
2022/07/11 09:30:43;;;;;;;1.02;0.70;;;21.20;80.50;;;;;;5024345;28;20026;-74
2022/07/11 09:33:10;;;;;;;2.38;1.10;;;21.20;80.80;;;;;;5015809;28;20496;-74
2022/07/11 09:35:38;;;;;;;1.52;0.80;;;21.20;80.60;;;;;;5023715;28;20017;-73
2022/07/11 09:38:05;;;;;;;1.95;0.80;;;21.10;80.70;;;;;;5007119;28;20132;-73
2022/07/11 09:40:31;;;;;;;2.70;0.98;;;21.10;80.90;;;;;;5008764;28;20022;-74
2022/07/11 09:42:58;;;;;;;3.83;0.93;;;21.00;81.60;;;;;;5015750;28;20024;-72
2022/07/11 09:45:29;;;;;;;2.15;1.00;;;21.00;80.90;;;;;;5027871;28;20088;-73
2022/07/11 09:47:57;;;;;;;1.98;1.00;;;21.10;81.70;;;;;;5015430;28;20034;-72
2022/07/11 09:50:25;;;;;;;1.30;0.65;;;20.90;81.20;;;;;;5027778;28;20080;-72
2022/07/11 09:53:02;;;;;;;3.05;0.90;;;20.90;81.60;;;;;;5016000;28;20133;-73
2022/07/11 09:55:35;;;;;;;1.25;0.73;;;20.90;80.60;;;;;;5027965;28;20406;-74
2022/07/11 09:58:09;;;;;;;1.90;0.70;;;20.80;81.50;;;;;;5015589;28;20133;-74
2022/07/11 10:00:36;;;;;;;3.55;0.60;;;20.80;81.60;;;;;;5027896;28;20021;-74
2022/07/11 10:03:03;;;;;;;2.70;0.90;;;20.90;80.10;;;;;;5015628;28;20034;-73
2022/07/11 10:05:30;;;;;;;3.20;0.70;;;21.00;81.20;;;;;;5026519;28;20426;-73
2022/07/11 10:07:57;;;;;;;3.15;0.90;;;21.20;81.80;;;;;;4999889;28;20107;-73
2022/07/11 10:10:23;;;;;;;2.33;1.10;;;21.30;80.10;;;;;;5024023;28;20055;-73
2022/07/11 10:12:51;;;;;;;2.13;0.68;;;21.40;80.60;;;;;;5001509;28;20022;-75
2022/07/11 10:15:22;;;;;;;2.97;0.70;;;21.50;79.40;;;;;;5019737;28;20054;-74
2022/07/11 10:18:08;;;;;;;3.05;0.60;;;21.70;79.70;;;;;;5015923;28;20084;-75
2022/07/11 10:20:53;;;;;;;2.08;0.50;;;21.90;75.40;;;;;;5001816;28;20033;-74
2022/07/11 10:23:44;;;;;;;2.03;0.57;;;22.10;76.10;;;;;;5014297;28;20718;-73
2022/07/11 10:26:45;;;;;;;2.15;0.50;;;22.20;76.80;;;;;;5005530;28;20018;-75
2022/07/11 10:29:22;;;;;;;2.85;0.50;;;22.30;75.50;;;;;;4994348;28;20068;-73
2022/07/11 10:32:04;;;;;;;2.47;0.70;;;22.40;74.90;;;;;;5006060;28;20045;-72
2022/07/11 10:34:29;;;;;;;1.23;0.57;;;22.50;75.30;;;;;;5011796;28;20026;-74
2022/07/11 10:37:03;;;;;;;1.25;0.60;;;22.40;75.40;;;;;;5026241;28;20044;-73
2022/07/11 10:39:30;;;;;;;0.88;0.50;;;22.20;75.40;;;;;;5031497;28;20029;-73
2022/07/11 10:41:57;;;;;;;2.03;0.60;;;22.10;76.40;;;;;;5011877;28;20060;-74
2022/07/11 10:44:23;;;;;;;1.00;0.60;;;22.00;76.90;;;;;;5011533;28;20107;-72
2022/07/11 10:46:49;;;;;;;1.48;0.68;;;21.90;77.60;;;;;;5022635;28;20029;-73
2022/07/11 10:49:23;;;;;;;2.00;0.80;;;21.90;77.60;;;;;;5013525;28;20095;-73
2022/07/11 10:51:57;;;;;;;1.02;0.52;;;22.00;77.40;;;;;;5020414;28;20030;-73
2022/07/11 10:54:41;;;;;;;1.23;0.60;;;22.10;76.30;;;;;;5013325;28;20053;-73
2022/07/11 10:57:13;;;;;;;1.33;0.40;;;22.20;76.10;;;;;;5021756;28;20052;-74
2022/07/11 10:59:56;;;;;;;1.85;0.70;;;22.60;74.30;;;;;;5012459;28;20022;-74
2022/07/11 11:02:22;;;;;;;0.93;0.60;;;22.90;74.00;;;;;;5022171;28;20035;-73
2022/07/11 11:04:57;;;;;;;1.05;0.50;;;23.10;72.20;;;;;;4995217;28;20484;-74
2022/07/11 11:07:44;;;;;;;1.38;0.50;;;23.20;72.70;;;;;;5019657;28;20508;-73
2022/07/11 11:10:19;;;;;;;1.17;0.52;;;23.30;72.00;;;;;;5031407;28;20080;-74
2022/07/11 11:13:07;;;;;;;1.60;0.60;;;23.30;72.10;;;;;;5026724;28;20107;-73
2022/07/11 11:15:38;;;;;;;1.25;0.50;;;23.40;71.20;;;;;;5002406;28;20025;-73
2022/07/11 11:18:22;;;;;;;1.60;0.50;;;23.30;70.20;;;;;;5023026;28;20168;-73
2022/07/11 11:21:09;;;;;;;3.13;0.70;;;23.20;70.60;;;;;;5025350;28;20549;-74
2022/07/11 11:24:00;;;;;;;2.00;0.80;;;23.20;71.10;;;;;;5023649;28;20026;-74
2022/07/11 11:26:41;;;;;;;2.10;1.02;;;23.20;71.30;;;;;;5010949;28;20028;-73
2022/07/11 11:29:08;;;;;;;1.10;0.60;;;23.10;72.70;;;;;;5010875;28;20116;-74
2022/07/11 11:31:34;;;;;;;1.25;0.63;;;23.00;72.70;;;;;;5015384;28;20018;-74
2022/07/11 11:34:02;;;;;;;1.25;0.80;;;23.00;72.80;;;;;;5005273;28;20014;-74
2022/07/11 11:36:28;;;;;;;1.05;0.60;;;23.00;72.60;;;;;;5016024;28;20534;-74
2022/07/11 11:38:54;;;;;;;1.40;0.80;;;22.90;73.10;;;;;;5026044;28;20036;-73
2022/07/11 11:41:28;;;;;;;1.95;0.90;;;22.90;73.40;;;;;;5013988;28;20029;-74
2022/07/11 11:43:57;;;;;;;1.45;1.08;;;22.80;73.50;;;;;;5024064;28;20570;-74
2022/07/11 11:46:31;;;;;;;1.70;0.60;;;22.80;73.40;;;;;;5019805;28;20119;-72
2022/07/11 11:49:04;;;;;;;1.20;0.70;;;22.80;74.10;;;;;;5022107;28;20024;-72
2022/07/11 11:51:31;;;;;;;2.15;0.70;;;22.80;74.10;;;;;;5021139;28;20018;-72
2022/07/11 11:53:58;;;;;;;2.88;0.70;;;22.80;72.70;;;;;;5022241;28;20087;-72
2022/07/11 11:56:33;;;;;;;1.30;0.40;;;22.80;73.10;;;;;;5017654;28;20064;-72
2022/07/11 11:59:12;;;;;;;2.05;0.88;;;22.80;70.20;;;;;;5018015;28;20030;-73
2022/07/11 12:01:41;;;;;;;1.63;0.80;;;22.70;74.40;;;;;;5019709;28;20465;-72
2022/07/11 12:04:17;;;;;;;1.40;0.82;;;22.80;74.50;;;;;;5024098;28;20471;-73
2022/07/11 12:06:46;;;;;;;3.75;0.93;;;22.80;74.10;;;;;;5021035;28;20037;-73
2022/07/11 12:09:15;;;;;;;1.88;1.13;;;22.80;74.00;;;;;;5021091;28;20101;-74
2022/07/11 12:11:46;;;;;;;2.88;0.80;;;22.80;74.20;;;;;;5020920;28;20030;-72
2022/07/11 12:14:13;;;;;;;1.92;1.02;;;22.90;73.60;;;;;;5023258;28;20694;-72
2022/07/11 12:16:48;;;;;;;1.23;0.88;;;22.80;73.90;;;;;;5001728;28;20053;-73
2022/07/11 12:19:23;;;;;;;0.63;0.22;;;22.90;73.90;;;;;;5002293;28;20022;-72
2022/07/11 12:21:51;;;;;;;2.28;0.60;;;22.90;72.70;;;;;;5022158;28;20444;-73
2022/07/11 12:24:20;;;;;;;1.30;0.63;;;22.90;72.20;;;;;;5023144;28;20034;-73
2022/07/11 12:26:46;;;;;;;2.25;0.85;;;23.00;72.70;;;;;;5018977;28;20092;-72
2022/07/11 12:29:19;;;;;;;1.90;0.73;;;23.00;72.90;;;;;;5017005;28;20405;-72
2022/07/11 12:31:49;;;;;;;0.52;0.40;;;22.90;73.20;;;;;;5018291;28;20430;-73
2022/07/11 12:34:18;;;;;;;;;;;22.90;72.40;;;;;;5015851;28;20029;-73
2022/07/11 12:36:51;;;;;;;1.13;0.55;;;22.90;72.50;;;;;;5016267;28;19916;-74
2022/07/11 12:39:28;;;;;;;1.70;0.30;;;23.00;73.10;;;;;;5017822;28;20025;-73
2022/07/11 12:41:56;;;;;;;1.95;0.47;;;23.00;72.80;;;;;;5016540;28;20029;-73
2022/07/11 12:47:24;;;;;;;1.80;0.43;;;23.10;71.20;;;;;;5028023;28;20132;-73
2022/07/11 12:49:50;;;;;;;3.67;0.35;;;23.10;70.00;;;;;;5026770;28;20491;-74
2022/07/11 12:52:17;;;;;;;1.17;0.32;;;23.10;68.50;;;;;;5019724;28;20072;-73
2022/07/11 12:54:43;;;;;;;1.13;0.50;;;23.00;69.90;;;;;;4992179;28;20034;-75
2022/07/11 12:57:14;;;;;;;0.77;0.30;;;22.90;70.80;;;;;;5001984;28;20022;-74